sensor_id;sensor_type;location;lat;lon;timestamp;pressure;altitude;pressure_sealevel;temperature;humidity
29433;BME280;16405;53.964;13.448;2022-08-14T00:02:04;101228.03;;;19.02;100.00
29433;BME280;16405;53.964;13.448;2022-08-14T00:04:32;101227.44;;;18.99;100.00
29433;BME280;16405;53.964;13.448;2022-08-14T00:06:59;101224.03;;;18.97;100.00
29433;BME280;16405;53.964;13.448;2022-08-14T00:09:25;101218.91;;;18.94;100.00
29433;BME280;16405;53.964;13.448;2022-08-14T00:11:52;101218.41;;;18.89;100.00
29433;BME280;16405;53.964;13.448;2022-08-14T00:14:18;101215.97;;;18.85;100.00
29433;BME280;16405;53.964;13.448;2022-08-14T00:16:44;101217.66;;;18.87;100.00
29433;BME280;16405;53.964;13.448;2022-08-14T00:19:10;101212.56;;;18.83;100.00
29433;BME280;16405;53.964;13.448;2022-08-14T00:21:35;101210.84;;;18.82;100.00
29433;BME280;16405;53.964;13.448;2022-08-14T00:24:03;101214.59;;;18.80;100.00
29433;BME280;16405;53.964;13.448;2022-08-14T00:26:29;101217.38;;;18.78;100.00
29433;BME280;16405;53.964;13.448;2022-08-14T00:28:55;101216.72;;;18.75;100.00
29433;BME280;16405;53.964;13.448;2022-08-14T00:31:22;101222.06;;;18.75;100.00
29433;BME280;16405;53.964;13.448;2022-08-14T00:33:48;101220.34;;;18.74;100.00
29433;BME280;16405;53.964;13.448;2022-08-14T00:36:14;101210.53;;;18.74;100.00
29433;BME280;16405;53.964;13.448;2022-08-14T00:38:40;101206.16;;;18.73;100.00
29433;BME280;16405;53.964;13.448;2022-08-14T00:41:09;101212.56;;;18.71;100.00
29433;BME280;16405;53.964;13.448;2022-08-14T00:43:35;101201.16;;;18.69;100.00
29433;BME280;16405;53.964;13.448;2022-08-14T00:46:06;101200.44;;;18.67;100.00
29433;BME280;16405;53.964;13.448;2022-08-14T00:48:32;101199.91;;;18.61;100.00
29433;BME280;16405;53.964;13.448;2022-08-14T00:50:58;101197.69;;;18.55;100.00
29433;BME280;16405;53.964;13.448;2022-08-14T00:53:24;101195.13;;;18.54;100.00
29433;BME280;16405;53.964;13.448;2022-08-14T00:55:54;101194.59;;;18.49;100.00
29433;BME280;16405;53.964;13.448;2022-08-14T00:58:21;101189.59;;;18.44;100.00
29433;BME280;16405;53.964;13.448;2022-08-14T01:01:03;101194.53;;;18.37;100.00
29433;BME280;16405;53.964;13.448;2022-08-14T01:03:35;101192.94;;;18.35;100.00
29433;BME280;16405;53.964;13.448;2022-08-14T01:06:07;101197.63;;;18.31;100.00
29433;BME280;16405;53.964;13.448;2022-08-14T01:08:36;101194.97;;;18.31;100.00
29433;BME280;16405;53.964;13.448;2022-08-14T01:11:04;101199.34;;;18.32;100.00
29433;BME280;16405;53.964;13.448;2022-08-14T01:13:35;101198.38;;;18.33;100.00
29433;BME280;16405;53.964;13.448;2022-08-14T01:16:06;101200.09;;;18.34;100.00
29433;BME280;16405;53.964;13.448;2022-08-14T01:18:33;101194.66;;;18.36;100.00
29433;BME280;16405;53.964;13.448;2022-08-14T01:21:35;101199.25;;;18.34;100.00
29433;BME280;16405;53.964;13.448;2022-08-14T01:24:04;101201.19;;;18.32;100.00
29433;BME280;16405;53.964;13.448;2022-08-14T01:26:33;101199.44;;;18.31;100.00
29433;BME280;16405;53.964;13.448;2022-08-14T01:29:01;101202.34;;;18.28;100.00
29433;BME280;16405;53.964;13.448;2022-08-14T01:31:31;101196.38;;;18.24;100.00
29433;BME280;16405;53.964;13.448;2022-08-14T01:34:02;101195.63;;;18.22;100.00
29433;BME280;16405;53.964;13.448;2022-08-14T01:36:29;101194.88;;;18.20;100.00
29433;BME280;16405;53.964;13.448;2022-08-14T01:39:10;101190.72;;;18.16;100.00
29433;BME280;16405;53.964;13.448;2022-08-14T01:41:39;101189.47;;;18.09;100.00
29433;BME280;16405;53.964;13.448;2022-08-14T01:44:11;101190.41;;;18.08;100.00
29433;BME280;16405;53.964;13.448;2022-08-14T01:46:42;101188.09;;;18.03;100.00
29433;BME280;16405;53.964;13.448;2022-08-14T01:49:13;101190.00;;;18.01;100.00
29433;BME280;16405;53.964;13.448;2022-08-14T01:51:41;101184.91;;;17.98;100.00
29433;BME280;16405;53.964;13.448;2022-08-14T01:54:12;101180.53;;;17.97;100.00
29433;BME280;16405;53.964;13.448;2022-08-14T01:56:40;101182.56;;;17.93;100.00
29433;BME280;16405;53.964;13.448;2022-08-14T01:59:27;101176.59;;;17.90;100.00
29433;BME280;16405;53.964;13.448;2022-08-14T02:01:57;101181.41;;;17.85;100.00
29433;BME280;16405;53.964;13.448;2022-08-14T02:04:32;101183.38;;;17.81;100.00
29433;BME280;16405;53.964;13.448;2022-08-14T02:07:02;101181.88;;;17.77;100.00
29433;BME280;16405;53.964;13.448;2022-08-14T02:09:29;101180.31;;;17.74;100.00
29433;BME280;16405;53.964;13.448;2022-08-14T02:12:04;101179.56;;;17.72;100.00
29433;BME280;16405;53.964;13.448;2022-08-14T02:14:30;101171.78;;;17.69;100.00
29433;BME280;16405;53.964;13.448;2022-08-14T02:16:56;101168.47;;;17.66;100.00
29433;BME280;16405;53.964;13.448;2022-08-14T02:19:26;101174.88;;;17.63;100.00
29433;BME280;16405;53.964;13.448;2022-08-14T02:21:55;101170.16;;;17.67;100.00
29433;BME280;16405;53.964;13.448;2022-08-14T02:24:27;101167.63;;;17.65;100.00
29433;BME280;16405;53.964;13.448;2022-08-14T02:26:59;101171.88;;;17.68;100.00
29433;BME280;16405;53.964;13.448;2022-08-14T02:29:30;101153.56;;;17.63;100.00
29433;BME280;16405;53.964;13.448;2022-08-14T02:31:58;101162.50;;;17.62;100.00
29433;BME280;16405;53.964;13.448;2022-08-14T02:34:27;101171.47;;;17.61;100.00
29433;BME280;16405;53.964;13.448;2022-08-14T02:37:04;101172.63;;;17.57;100.00
29433;BME280;16405;53.964;13.448;2022-08-14T02:39:38;101160.38;;;17.54;100.00
29433;BME280;16405;53.964;13.448;2022-08-14T02:42:07;101170.19;;;17.54;100.00
29433;BME280;16405;53.964;13.448;2022-08-14T02:44:34;101173.69;;;17.54;100.00
29433;BME280;16405;53.964;13.448;2022-08-14T02:47:07;101165.16;;;17.49;100.00
29433;BME280;16405;53.964;13.448;2022-08-14T02:49:34;101167.81;;;17.49;100.00
29433;BME280;16405;53.964;13.448;2022-08-14T02:52:00;101168.88;;;17.47;100.00
29433;BME280;16405;53.964;13.448;2022-08-14T02:54:32;101165.47;;;17.45;100.00
29433;BME280;16405;53.964;13.448;2022-08-14T02:56:59;101161.97;;;17.44;100.00
29433;BME280;16405;53.964;13.448;2022-08-14T02:59:27;101170.69;;;17.46;100.00
29433;BME280;16405;53.964;13.448;2022-08-14T03:01:59;101161.88;;;17.46;100.00
29433;BME280;16405;53.964;13.448;2022-08-14T03:04:25;101158.66;;;17.40;100.00
29433;BME280;16405;53.964;13.448;2022-08-14T03:06:53;101157.91;;;17.38;100.00
29433;BME280;16405;53.964;13.448;2022-08-14T03:09:19;101160.78;;;17.35;100.00
29433;BME280;16405;53.964;13.448;2022-08-14T03:11:45;101159.28;;;17.31;100.00
29433;BME280;16405;53.964;13.448;2022-08-14T03:14:14;101151.22;;;17.33;100.00
29433;BME280;16405;53.964;13.448;2022-08-14T03:16:41;101145.03;;;17.32;100.00
29433;BME280;16405;53.964;13.448;2022-08-14T03:19:07;101145.03;;;17.32;100.00
29433;BME280;16405;53.964;13.448;2022-08-14T03:21:35;101148.66;;;17.31;100.00
29433;BME280;16405;53.964;13.448;2022-08-14T03:24:03;101142.47;;;17.31;100.00
29433;BME280;16405;53.964;13.448;2022-08-14T03:26:32;101148.66;;;17.31;100.00
29433;BME280;16405;53.964;13.448;2022-08-14T03:28:58;101147.91;;;17.29;100.00
29433;BME280;16405;53.964;13.448;2022-08-14T03:31:24;101138.22;;;17.28;100.00
29433;BME280;16405;53.964;13.448;2022-08-14T03:33:50;101140.75;;;17.30;100.00
29433;BME280;16405;53.964;13.448;2022-08-14T03:36:18;101140.88;;;17.28;100.00
29433;BME280;16405;53.964;13.448;2022-08-14T03:38:50;101130.44;;;17.25;100.00
29433;BME280;16405;53.964;13.448;2022-08-14T03:41:22;101142.78;;;17.26;100.00
29433;BME280;16405;53.964;13.448;2022-08-14T03:43:56;101142.66;;;17.28;100.00
29433;BME280;16405;53.964;13.448;2022-08-14T03:46:24;101135.66;;;17.27;100.00
29433;BME280;16405;53.964;13.448;2022-08-14T03:48:55;101129.50;;;17.26;100.00
29433;BME280;16405;53.964;13.448;2022-08-14T03:51:22;101132.91;;;17.28;100.00
29433;BME280;16405;53.964;13.448;2022-08-14T03:53:55;101136.31;;;17.30;100.00
29433;BME280;16405;53.964;13.448;2022-08-14T03:56:24;101134.28;;;17.34;100.00
29433;BME280;16405;53.964;13.448;2022-08-14T03:58:54;101126.94;;;17.37;100.00
29433;BME280;16405;53.964;13.448;2022-08-14T04:01:24;101129.38;;;17.40;100.00
29433;BME280;16405;53.964;13.448;2022-08-14T04:03:54;101127.28;;;17.46;100.00
29433;BME280;16405;53.964;13.448;2022-08-14T04:06:23;101138.44;;;17.51;100.00
29433;BME280;16405;53.964;13.448;2022-08-14T04:08:49;101138.00;;;17.57;100.00
29433;BME280;16405;53.964;13.448;2022-08-14T04:11:19;101139.28;;;17.64;100.00
29433;BME280;16405;53.964;13.448;2022-08-14T04:13:45;101138.75;;;17.72;100.00
29433;BME280;16405;53.964;13.448;2022-08-14T04:16:20;101138.34;;;17.78;100.00
29433;BME280;16405;53.964;13.448;2022-08-14T04:18:55;101144.84;;;17.87;100.00
29433;BME280;16405;53.964;13.448;2022-08-14T04:21:24;101136.94;;;17.98;100.00
29433;BME280;16405;53.964;13.448;2022-08-14T04:23:53;101145.25;;;18.06;100.00
29433;BME280;16405;53.964;13.448;2022-08-14T04:26:19;101143.63;;;18.16;100.00
29433;BME280;16405;53.964;13.448;2022-08-14T04:28:48;101139.22;;;18.28;100.00
29433;BME280;16405;53.964;13.448;2022-08-14T04:31:20;101147.72;;;18.33;100.00
29433;BME280;16405;53.964;13.448;2022-08-14T04:33:47;101137.25;;;18.43;100.00
29433;BME280;16405;53.964;13.448;2022-08-14T04:36:13;101142.59;;;18.91;100.00
29433;BME280;16405;53.964;13.448;2022-08-14T04:38:39;101149.25;;;20.79;100.00
29433;BME280;16405;53.964;13.448;2022-08-14T04:41:24;101147.66;;;22.52;99.52
29433;BME280;16405;53.964;13.448;2022-08-14T04:44:08;101154.41;;;23.64;87.24
29433;BME280;16405;53.964;13.448;2022-08-14T04:46:35;101156.47;;;23.23;86.44
29433;BME280;16405;53.964;13.448;2022-08-14T04:49:03;101152.06;;;24.71;81.91
29433;BME280;16405;53.964;13.448;2022-08-14T04:51:29;101159.03;;;25.88;74.82
29433;BME280;16405;53.964;13.448;2022-08-14T04:54:03;101157.16;;;26.98;70.36
29433;BME280;16405;53.964;13.448;2022-08-14T04:56:28;101163.75;;;28.01;65.12
29433;BME280;16405;53.964;13.448;2022-08-14T04:59:00;101166.69;;;29.08;62.60
29433;BME280;16405;53.964;13.448;2022-08-14T05:01:28;101170.22;;;29.70;60.05
29433;BME280;16405;53.964;13.448;2022-08-14T05:03:54;101168.88;;;30.10;58.54
29433;BME280;16405;53.964;13.448;2022-08-14T05:06:20;101172.00;;;30.80;56.09
29433;BME280;16405;53.964;13.448;2022-08-14T05:08:46;101179.81;;;31.54;54.70
29433;BME280;16405;53.964;13.448;2022-08-14T05:11:12;101182.66;;;32.09;52.58
29433;BME280;16405;53.964;13.448;2022-08-14T05:13:41;101188.53;;;32.61;51.93
29433;BME280;16405;53.964;13.448;2022-08-14T05:16:08;101183.34;;;33.73;49.50
29433;BME280;16405;53.964;13.448;2022-08-14T05:18:36;101189.22;;;34.41;47.57
29433;BME280;16405;53.964;13.448;2022-08-14T05:21:06;101193.50;;;34.62;46.97
29433;BME280;16405;53.964;13.448;2022-08-14T05:23:38;101192.81;;;34.80;46.37
29433;BME280;16405;53.964;13.448;2022-08-14T05:26:06;101198.59;;;35.72;44.69
29433;BME280;16405;53.964;13.448;2022-08-14T05:28:41;101205.59;;;34.48;46.55
29433;BME280;16405;53.964;13.448;2022-08-14T05:31:13;101208.88;;;35.27;45.04
29433;BME280;16405;53.964;13.448;2022-08-14T05:33:43;101218.22;;;35.69;44.42
29433;BME280;16405;53.964;13.448;2022-08-14T05:36:12;101216.72;;;36.29;43.17
29433;BME280;16405;53.964;13.448;2022-08-14T05:38:41;101218.47;;;37.14;42.12
29433;BME280;16405;53.964;13.448;2022-08-14T05:41:17;101214.81;;;36.60;42.07
29433;BME280;16405;53.964;13.448;2022-08-14T05:43:45;101218.75;;;37.24;40.82
29433;BME280;16405;53.964;13.448;2022-08-14T05:46:17;101220.66;;;37.24;40.99
29433;BME280;16405;53.964;13.448;2022-08-14T05:48:50;101233.56;;;37.35;40.07
29433;BME280;16405;53.964;13.448;2022-08-14T05:51:20;101240.81;;;38.24;39.42
29433;BME280;16405;53.964;13.448;2022-08-14T05:53:47;101235.22;;;38.47;38.86
29433;BME280;16405;53.964;13.448;2022-08-14T05:56:13;101245.16;;;38.77;37.69
29433;BME280;16405;53.964;13.448;2022-08-14T05:58:39;101246.53;;;37.16;40.47
29433;BME280;16405;53.964;13.448;2022-08-14T06:01:05;101238.78;;;36.34;41.26
29433;BME280;16405;53.964;13.448;2022-08-14T06:03:38;101236.69;;;37.74;39.41
29433;BME280;16405;53.964;13.448;2022-08-14T06:06:04;101236.19;;;38.82;38.51
29433;BME280;16405;53.964;13.448;2022-08-14T06:08:31;101232.41;;;38.71;37.99
29433;BME280;16405;53.964;13.448;2022-08-14T06:11:04;101234.41;;;38.06;38.08
29433;BME280;16405;53.964;13.448;2022-08-14T06:13:32;101229.53;;;38.66;38.13
29433;BME280;16405;53.964;13.448;2022-08-14T06:15:58;101228.28;;;37.33;39.18
29433;BME280;16405;53.964;13.448;2022-08-14T06:18:24;101227.59;;;37.50;39.04
29433;BME280;16405;53.964;13.448;2022-08-14T06:20:57;101221.69;;;36.69;39.84
29433;BME280;16405;53.964;13.448;2022-08-14T06:23:23;101209.31;;;36.11;41.39
29433;BME280;16405;53.964;13.448;2022-08-14T06:25:49;101206.66;;;35.86;41.47
29433;BME280;16405;53.964;13.448;2022-08-14T06:28:22;101208.41;;;37.08;39.59
29433;BME280;16405;53.964;13.448;2022-08-14T06:30:49;101197.16;;;36.74;39.22
29433;BME280;16405;53.964;13.448;2022-08-14T06:33:16;101206.44;;;37.39;38.58
29433;BME280;16405;53.964;13.448;2022-08-14T06:35:43;101202.44;;;38.57;37.51
29433;BME280;16405;53.964;13.448;2022-08-14T06:38:19;101207.38;;;37.91;37.98
29433;BME280;16405;53.964;13.448;2022-08-14T06:40:46;101200.00;;;36.79;39.39
29433;BME280;16405;53.964;13.448;2022-08-14T06:43:15;101189.78;;;38.16;38.27
29433;BME280;16405;53.964;13.448;2022-08-14T06:45:45;101185.44;;;38.61;36.85
29433;BME280;16405;53.964;13.448;2022-08-14T06:48:19;101188.22;;;38.49;37.25
29433;BME280;16405;53.964;13.448;2022-08-14T06:50:47;101179.34;;;37.66;38.07
29433;BME280;16405;53.964;13.448;2022-08-14T06:53:14;101171.16;;;37.94;37.94
29433;BME280;16405;53.964;13.448;2022-08-14T06:55:42;101174.31;;;37.74;38.06
29433;BME280;16405;53.964;13.448;2022-08-14T06:58:13;101173.91;;;36.88;38.86
29433;BME280;16405;53.964;13.448;2022-08-14T07:00:40;101165.75;;;36.40;39.72
29433;BME280;16405;53.964;13.448;2022-08-14T07:03:30;101179.09;;;37.20;38.44
29433;BME280;16405;53.964;13.448;2022-08-14T07:06:16;101169.50;;;36.08;39.78
29433;BME280;16405;53.964;13.448;2022-08-14T07:08:42;101165.91;;;36.26;39.25
29433;BME280;16405;53.964;13.448;2022-08-14T07:11:10;101161.94;;;36.71;38.82
29433;BME280;16405;53.964;13.448;2022-08-14T07:13:36;101162.81;;;36.95;38.94
29433;BME280;16405;53.964;13.448;2022-08-14T07:16:04;101160.22;;;36.28;39.88
29433;BME280;16405;53.964;13.448;2022-08-14T07:18:33;101152.88;;;36.82;39.03
29433;BME280;16405;53.964;13.448;2022-08-14T07:21:01;101153.69;;;36.41;39.98
29433;BME280;16405;53.964;13.448;2022-08-14T07:23:28;101144.66;;;36.70;39.13
29433;BME280;16405;53.964;13.448;2022-08-14T07:25:56;101147.31;;;36.59;38.54
29433;BME280;16405;53.964;13.448;2022-08-14T07:28:24;101144.69;;;36.22;39.36
29433;BME280;16405;53.964;13.448;2022-08-14T07:30:54;101146.34;;;36.83;38.66
29433;BME280;16405;53.964;13.448;2022-08-14T07:33:25;101139.84;;;35.87;39.72
29433;BME280;16405;53.964;13.448;2022-08-14T07:35:52;101128.03;;;35.86;40.38
29433;BME280;16405;53.964;13.448;2022-08-14T07:38:21;101132.19;;;36.26;39.47
29433;BME280;16405;53.964;13.448;2022-08-14T07:40:49;101130.22;;;35.96;39.26
29433;BME280;16405;53.964;13.448;2022-08-14T07:43:16;101122.06;;;35.52;39.47
29433;BME280;16405;53.964;13.448;2022-08-14T07:45:43;101116.44;;;35.72;38.41
29433;BME280;16405;53.964;13.448;2022-08-14T07:48:09;101121.56;;;35.99;38.37
29433;BME280;16405;53.964;13.448;2022-08-14T07:50:37;101119.28;;;35.41;39.11
29433;BME280;16405;53.964;13.448;2022-08-14T07:53:05;101107.66;;;35.20;39.34
29433;BME280;16405;53.964;13.448;2022-08-14T07:55:41;101102.91;;;35.89;38.62
29433;BME280;16405;53.964;13.448;2022-08-14T07:58:08;101109.66;;;35.75;39.28
29433;BME280;16405;53.964;13.448;2022-08-14T08:00:34;101097.34;;;34.72;39.78
29433;BME280;16405;53.964;13.448;2022-08-14T08:03:00;101084.78;;;34.33;40.62
29433;BME280;16405;53.964;13.448;2022-08-14T08:05:26;101087.84;;;33.59;41.79
29433;BME280;16405;53.964;13.448;2022-08-14T08:07:53;101091.44;;;33.40;42.19
29433;BME280;16405;53.964;13.448;2022-08-14T08:10:25;101092.94;;;33.94;41.13
29433;BME280;16405;53.964;13.448;2022-08-14T08:13:06;101098.66;;;34.31;41.54
29433;BME280;16405;53.964;13.448;2022-08-14T08:15:36;101096.28;;;34.73;40.53
29433;BME280;16405;53.964;13.448;2022-08-14T08:18:08;101088.59;;;34.88;40.55
29433;BME280;16405;53.964;13.448;2022-08-14T08:20:39;101094.72;;;35.09;40.04
29433;BME280;16405;53.964;13.448;2022-08-14T08:23:08;101091.59;;;34.80;40.63
29433;BME280;16405;53.964;13.448;2022-08-14T08:25:39;101094.34;;;34.48;40.36
29433;BME280;16405;53.964;13.448;2022-08-14T08:30:50;101091.38;;;33.66;42.25
29433;BME280;16405;53.964;13.448;2022-08-14T08:33:21;101092.97;;;34.33;40.99
29433;BME280;16405;53.964;13.448;2022-08-14T08:35:48;101090.94;;;33.76;41.34
29433;BME280;16405;53.964;13.448;2022-08-14T08:38:18;101086.00;;;32.93;42.83
29433;BME280;16405;53.964;13.448;2022-08-14T08:40:51;101081.75;;;32.50;43.49
29433;BME280;16405;53.964;13.448;2022-08-14T08:43:27;101072.97;;;32.48;44.08
29433;BME280;16405;53.964;13.448;2022-08-14T08:46:08;101067.84;;;32.05;44.09
29433;BME280;16405;53.964;13.448;2022-08-14T08:48:55;101072.38;;;31.43;44.53
29433;BME280;16405;53.964;13.448;2022-08-14T08:51:35;101064.00;;;30.89;45.08
29433;BME280;16405;53.964;13.448;2022-08-14T08:54:07;101059.56;;;31.09;45.41
29433;BME280;16405;53.964;13.448;2022-08-14T08:56:48;101058.19;;;30.92;46.02
29433;BME280;16405;53.964;13.448;2022-08-14T08:59:27;101067.75;;;31.16;46.16
29433;BME280;16405;53.964;13.448;2022-08-14T09:02:01;101060.56;;;30.80;47.04
29433;BME280;16405;53.964;13.448;2022-08-14T09:04:33;101064.41;;;31.14;48.22
29433;BME280;16405;53.964;13.448;2022-08-14T09:07:00;101047.50;;;30.69;46.90
29433;BME280;16405;53.964;13.448;2022-08-14T09:09:31;101050.56;;;30.59;48.28
29433;BME280;16405;53.964;13.448;2022-08-14T09:12:01;101043.59;;;29.62;48.90
29433;BME280;16405;53.964;13.448;2022-08-14T09:14:29;101052.38;;;29.94;49.41
29433;BME280;16405;53.964;13.448;2022-08-14T09:16:58;101059.81;;;29.70;49.11
29433;BME280;16405;53.964;13.448;2022-08-14T09:19:26;101052.19;;;29.80;49.59
29433;BME280;16405;53.964;13.448;2022-08-14T09:21:52;101048.38;;;29.90;49.62
29433;BME280;16405;53.964;13.448;2022-08-14T09:24:20;101043.63;;;29.47;49.98
29433;BME280;16405;53.964;13.448;2022-08-14T09:26:47;101039.97;;;29.40;49.57
29433;BME280;16405;53.964;13.448;2022-08-14T09:29:13;101026.78;;;29.37;49.16
29433;BME280;16405;53.964;13.448;2022-08-14T09:31:48;101026.09;;;29.64;49.51
29433;BME280;16405;53.964;13.448;2022-08-14T09:43:58;101019.56;;;29.74;46.29
29433;BME280;16405;53.964;13.448;2022-08-14T09:46:28;101023.31;;;29.73;46.41
29433;BME280;16405;53.964;13.448;2022-08-14T09:49:06;101019.38;;;29.31;46.64
29433;BME280;16405;53.964;13.448;2022-08-14T09:51:39;101013.69;;;29.40;46.37
29433;BME280;16405;53.964;13.448;2022-08-14T09:54:09;101004.44;;;29.35;46.65
29433;BME280;16405;53.964;13.448;2022-08-14T09:56:50;101010.41;;;29.60;46.07
29433;BME280;16405;53.964;13.448;2022-08-14T09:59:19;101003.28;;;29.74;45.89
29433;BME280;16405;53.964;13.448;2022-08-14T10:01:50;101021.97;;;29.69;45.66
29433;BME280;16405;53.964;13.448;2022-08-14T10:04:24;101011.41;;;29.59;45.90
29433;BME280;16405;53.964;13.448;2022-08-14T10:06:56;101007.97;;;29.50;45.73
29433;BME280;16405;53.964;13.448;2022-08-14T10:09:23;101016.00;;;29.58;45.45
29433;BME280;16405;53.964;13.448;2022-08-14T10:11:56;101009.66;;;29.51;45.36
29433;BME280;16405;53.964;13.448;2022-08-14T10:14:27;100998.72;;;29.74;46.00
29433;BME280;16405;53.964;13.448;2022-08-14T10:16:56;101004.97;;;29.75;45.53
29433;BME280;16405;53.964;13.448;2022-08-14T10:19:24;101004.44;;;30.22;44.99
29433;BME280;16405;53.964;13.448;2022-08-14T10:22:07;101022.44;;;30.09;44.59
29433;BME280;16405;53.964;13.448;2022-08-14T10:24:40;101000.38;;;29.60;45.29
29433;BME280;16405;53.964;13.448;2022-08-14T10:27:21;101009.56;;;29.59;45.92
29433;BME280;16405;53.964;13.448;2022-08-14T10:29:53;100986.88;;;29.67;46.66
29433;BME280;16405;53.964;13.448;2022-08-14T10:32:20;100994.13;;;29.75;46.54
29433;BME280;16405;53.964;13.448;2022-08-14T10:34:48;100977.56;;;29.91;45.99
29433;BME280;16405;53.964;13.448;2022-08-14T10:37:17;100975.44;;;29.87;46.02
29433;BME280;16405;53.964;13.448;2022-08-14T10:39:59;100975.19;;;29.81;45.96
29433;BME280;16405;53.964;13.448;2022-08-14T10:42:35;100973.97;;;29.84;45.63
29433;BME280;16405;53.964;13.448;2022-08-14T10:45:02;100979.72;;;29.74;46.04
29433;BME280;16405;53.964;13.448;2022-08-14T10:47:35;100963.47;;;30.17;45.26
29433;BME280;16405;53.964;13.448;2022-08-14T10:50:04;100970.72;;;29.74;45.54
29433;BME280;16405;53.964;13.448;2022-08-14T10:52:34;100971.13;;;29.92;45.48
29433;BME280;16405;53.964;13.448;2022-08-14T10:55:13;100965.72;;;29.92;45.86
29433;BME280;16405;53.964;13.448;2022-08-14T10:57:54;100968.16;;;29.87;44.92
29433;BME280;16405;53.964;13.448;2022-08-14T11:00:25;100965.38;;;29.14;46.57
29433;BME280;16405;53.964;13.448;2022-08-14T11:02:59;100979.91;;;29.43;45.75
29433;BME280;16405;53.964;13.448;2022-08-14T11:05:40;100969.47;;;29.40;46.49
29433;BME280;16405;53.964;13.448;2022-08-14T11:08:07;100963.47;;;29.30;46.20
29433;BME280;16405;53.964;13.448;2022-08-14T11:10:53;100959.56;;;29.17;46.23
29433;BME280;16405;53.964;13.448;2022-08-14T11:13:27;100959.91;;;28.99;46.70
29433;BME280;16405;53.964;13.448;2022-08-14T11:15:55;100955.97;;;29.02;46.64
29433;BME280;16405;53.964;13.448;2022-08-14T11:18:25;100943.56;;;28.78;46.60
29433;BME280;16405;53.964;13.448;2022-08-14T11:20:56;100954.06;;;29.11;46.37
29433;BME280;16405;53.964;13.448;2022-08-14T11:23:33;100931.41;;;29.03;46.55
29433;BME280;16405;53.964;13.448;2022-08-14T11:26:01;100942.63;;;29.30;45.98
29433;BME280;16405;53.964;13.448;2022-08-14T11:28:33;100932.19;;;29.63;45.46
29433;BME280;16405;53.964;13.448;2022-08-14T11:31:02;100941.16;;;29.79;43.89
29433;BME280;16405;53.964;13.448;2022-08-14T11:33:30;100938.28;;;29.51;44.09
29433;BME280;16405;53.964;13.448;2022-08-14T11:36:01;100925.75;;;29.50;44.43
29433;BME280;16405;53.964;13.448;2022-08-14T11:38:41;100922.16;;;29.64;43.59
29433;BME280;16405;53.964;13.448;2022-08-14T11:41:09;100929.53;;;29.34;44.19
29433;BME280;16405;53.964;13.448;2022-08-14T11:43:44;100921.31;;;28.97;44.47
29433;BME280;16405;53.964;13.448;2022-08-14T11:46:11;100926.25;;;28.94;45.22
29433;BME280;16405;53.964;13.448;2022-08-14T11:48:52;100918.50;;;29.35;45.13
29433;BME280;16405;53.964;13.448;2022-08-14T11:51:24;100927.09;;;29.39;44.26
29433;BME280;16405;53.964;13.448;2022-08-14T11:54:01;100916.63;;;29.36;44.54
29433;BME280;16405;53.964;13.448;2022-08-14T11:56:39;100918.31;;;29.22;45.02
29433;BME280;16405;53.964;13.448;2022-08-14T11:59:13;100903.75;;;29.23;45.24
29433;BME280;16405;53.964;13.448;2022-08-14T12:01:39;100892.53;;;28.96;45.65
29433;BME280;16405;53.964;13.448;2022-08-14T12:04:17;100897.09;;;29.26;45.80
29433;BME280;16405;53.964;13.448;2022-08-14T12:06:56;100899.91;;;29.54;45.37
29433;BME280;16405;53.964;13.448;2022-08-14T12:09:34;100894.13;;;28.91;45.40
29433;BME280;16405;53.964;13.448;2022-08-14T12:12:19;100897.84;;;29.04;46.13
29433;BME280;16405;53.964;13.448;2022-08-14T12:14:59;100900.31;;;28.47;46.02
29433;BME280;16405;53.964;13.448;2022-08-14T12:17:28;100881.53;;;28.30;46.79
29433;BME280;16405;53.964;13.448;2022-08-14T12:20:03;100888.47;;;28.48;46.74
29433;BME280;16405;53.964;13.448;2022-08-14T12:22:44;100882.56;;;28.44;46.84
29433;BME280;16405;53.964;13.448;2022-08-14T12:25:22;100886.78;;;28.47;46.60
29433;BME280;16405;53.964;13.448;2022-08-14T12:27:50;100889.13;;;28.12;47.20
29433;BME280;16405;53.964;13.448;2022-08-14T12:32:59;100873.66;;;28.06;46.88
29433;BME280;16405;53.964;13.448;2022-08-14T12:35:42;100868.66;;;28.32;47.04
29433;BME280;16405;53.964;13.448;2022-08-14T12:38:11;100864.47;;;28.45;47.04
29433;BME280;16405;53.964;13.448;2022-08-14T12:40:52;100874.34;;;28.37;46.71
29433;BME280;16405;53.964;13.448;2022-08-14T12:43:19;100870.06;;;28.28;46.83
29433;BME280;16405;53.964;13.448;2022-08-14T12:45:53;100861.34;;;28.18;46.60
29433;BME280;16405;53.964;13.448;2022-08-14T12:48:21;100855.69;;;28.28;46.57
29433;BME280;16405;53.964;13.448;2022-08-14T12:50:49;100854.44;;;28.53;46.69
29433;BME280;16405;53.964;13.448;2022-08-14T12:53:19;100861.78;;;28.59;46.62
29433;BME280;16405;53.964;13.448;2022-08-14T12:55:58;100853.00;;;28.72;46.67
29433;BME280;16405;53.964;13.448;2022-08-14T12:58:28;100844.94;;;29.09;47.26
29433;BME280;16405;53.964;13.448;2022-08-14T13:00:55;100835.34;;;28.91;45.64
29433;BME280;16405;53.964;13.448;2022-08-14T13:03:28;100837.03;;;28.92;46.46
29433;BME280;16405;53.964;13.448;2022-08-14T13:05:55;100826.44;;;29.12;46.82
29433;BME280;16405;53.964;13.448;2022-08-14T13:08:21;100827.19;;;29.06;46.45